Temp     Hi    Low   Out    Dew  Wind  Wind   Wind    Hi    Hi   Wind   Heat    THW                Rain    Heat    Cool    In     In    In     In     In   In Air   Temp  Wind  Wind    ISS   Arc.
  Date    Time     Out   Temp   Temp   Hum    Pt. Speed   Dir    Run Speed   Dir  Chill  Index  Index   Bar    Rain  Rate    D-D     D-D    Temp   Hum    Dew   Heat    EMC Density    2nd  Samp   Tx   Recept  Int.
----------------------------------------------------------------------------------------------------------------------------------------------------------------------------------------------------------------------
22/08/19 12:10a   10.2   10.2   10.2    67    4.3   0.0   ---   0.00   0.0   ---   10.2    9.9    9.9  1011.4  0.00   0.0   0.057   0.000   17.4    39    3.3   15.9   7.72 1.2039    41.7     0    2      0.0   10 
22/08/19 12:20a   10.2   10.2   10.2    68    4.5   0.0   ---   0.00   0.0   ---   10.2    9.9    9.9  1011.2  0.00   0.0   0.057   0.000   17.4    39    3.3   15.9   7.72 1.2036    41.7     0    2      0.0   10 
22/08/19 12:30a   10.1   10.2   10.1    67    4.3   0.0   ---   0.00   0.0   ---   10.1    9.8    9.8  1011.0  0.00   0.0   0.057   0.000   17.3    39    3.2   15.7   7.71 1.2041    41.7     0    2      0.0   10 
22/08/19 12:40a   10.1   10.1   10.1    67    4.3   0.0   ---   0.00   0.0   ---   10.1    9.8    9.8  1011.0  0.00   0.0   0.057   0.000   17.2    40    3.5   15.7   7.85 1.2041    41.7     0    2      0.0   10 
22/08/19 12:50a    9.9   10.1    9.9    67    4.1   0.0   ---   0.00   0.0   ---    9.9    9.7    9.7  1011.0  0.00   0.0   0.058   0.000   17.2    40    3.5   15.7   7.85 1.2041    41.7     0    2      0.0   10 
22/08/19  1:00a    9.9    9.9    9.9    66    3.9   0.0   ---   0.00   0.0   ---    9.9    9.6    9.6  1011.0  0.00   0.0   0.058   0.000   17.1    40    3.4   15.6   7.85 1.2047    41.7     0    2      0.0   10 
22/08/19  1:10a    9.9    9.9    9.8    64    3.4   0.0   ---   0.00   0.0   ---    9.9    9.6    9.6  1011.0  0.00   0.0   0.058   0.000   17.1    40    3.4   15.6   7.85 1.2047    41.7     0    2      0.0   10 
22/08/19  1:20a    9.9    9.9    9.9    65    3.7   0.0   ---   0.00   0.0   ---    9.9    9.6    9.6  1011.4  0.00   0.0   0.058   0.000   17.0    40    3.3   15.5   7.85 1.2057    41.7     0    2      0.0   10 
22/08/19  1:30a    9.9    9.9    9.9    65    3.7   0.0   ---   0.00   0.0   ---    9.9    9.6    9.6  1011.0  0.00   0.0   0.058   0.000   16.9    40    3.2   15.4   7.85 1.2055    41.7     0    2      0.0   10 
22/08/19  1:40a    9.9    9.9    9.9    64    3.4   0.0   ---   0.00   0.0   ---    9.9    9.6    9.6  1011.0  0.00   0.0   0.058   0.000   16.9    40    3.2   15.4   7.85 1.2055    41.7     0    2      0.0   10 
22/08/19  1:50a   10.0   10.0    9.9    64    3.5   0.0   ---   0.00   0.0   ---   10.0    9.7    9.7  1011.4  0.00   0.0   0.058   0.000   16.8    40    3.1   15.3   7.85 1.2064    41.7     0    2      0.0   10 
22/08/19  2:00a   10.0   10.0   10.0    64    3.5   0.0   ---   0.00   0.0   ---   10.0    9.7    9.7  1011.0  0.00   0.0   0.058   0.000   16.8    40    3.1   15.3   7.85 1.2063    41.7     0    2      0.0   10 
22/08/19  2:10a   10.0   10.0   10.0    63    3.3   0.0   ---   0.00   0.0   ---   10.0    9.6    9.6  1011.0  0.00   0.0   0.058   0.000   16.7    40    3.0   15.2   7.85 1.2068    41.7     0    2      0.0   10 
22/08/19  2:20a    9.9   10.0    9.9    63    3.2   0.0   ---   0.00   0.0   ---    9.9    9.6    9.6  1010.7  0.00   0.0   0.058   0.000   16.7    40    3.0   15.2   7.85 1.2064    41.7     0    2      0.0   10 
22/08/19  2:30a    9.9   10.0    9.9    64    3.4   0.0   ---   0.00   0.0   ---    9.9    9.6    9.6  1010.7  0.00   0.0   0.058   0.000   16.6    40    2.9   15.1   7.85 1.2066    41.7     0    2      0.0   10 
22/08/19  2:40a    9.8    9.9    9.8    63    3.1   0.0   ---   0.00   0.0   ---    9.8    9.4    9.4  1010.7  0.00   0.0   0.059   0.000   16.6    40    2.9   15.1   7.85 1.2066    41.7     0    2      0.0   10 
22/08/19  2:50a    9.8    9.8    9.8    64    3.3   0.0   ---   0.00   0.0   ---    9.8    9.4    9.4  1010.3  0.00   0.0   0.059   0.000   16.5    40    2.8   15.0   7.85 1.2067    41.7     0    2      0.0   10 
22/08/19  3:00a    9.8    9.8    9.8    66    3.7   0.0   ---   0.00   0.0   ---    9.8    9.4    9.4  1010.1  0.00   0.0   0.059   0.000   16.4    40    2.7   14.9   7.85 1.2070    41.7     0    2      0.0   10 
22/08/19  3:10a    9.6    9.8    9.6    67    3.8   0.0   ---   0.00   0.0   ---    9.6    9.3    9.3  1010.1  0.00   0.0   0.061   0.000   16.4    40    2.7   14.9   7.85 1.2070    41.7     0    2      0.0   10 
22/08/19  3:20a    9.6    9.6    9.6    67    3.7   0.0   ---   0.00   0.0   ---    9.6    9.3    9.3  1010.2  0.00   0.0   0.061   0.000   16.3    40    2.7   14.8   7.85 1.2074    41.7     0    2      0.0   10 
22/08/19  3:30a    9.6    9.6    9.6    67    3.8   0.0   ---   0.00   0.0   ---    9.6    9.3    9.3  1009.8  0.00   0.0   0.061   0.000   16.3    40    2.7   14.8   7.85 1.2069    41.7     0    2      0.0   10 
22/08/19  3:40a    9.6    9.6    9.6    67    3.7   0.0   ---   0.00   0.0   ---    9.6    9.3    9.3  1009.8  0.00   0.0   0.061   0.000   16.4    40    2.7   14.9   7.85 1.2067    41.7     0    2      0.0   10 
22/08/19  3:50a    9.4    9.6    9.4    68    3.8   0.0   ---   0.00   0.0   ---    9.4    9.2    9.2  1009.7  0.00   0.0   0.062   0.000   16.3    40    2.7   14.8   7.85 1.2068    41.7     0    2      0.0   10 
22/08/19  4:00a    9.6    9.6    9.4    67    3.7   0.0   ---   0.00   0.0   ---    9.6    9.3    9.3  1009.5  0.00   0.0   0.061   0.000   16.3    40    2.7   14.8   7.85 1.2065    41.7     0    2      0.0   10 
22/08/19  4:10a    9.6    9.6    9.6    67    3.7   0.0   ---   0.00   0.0   ---    9.6    9.3    9.3  1009.5  0.00   0.0   0.061   0.000   16.2    40    2.5   14.7   7.85 1.2073    41.7     0    2      0.0   10 
22/08/19  4:20a    9.4    9.6    9.4    68    3.8   0.0   ---   0.00   0.0   ---    9.4    9.2    9.2  1009.4  0.00   0.0   0.062   0.000   16.2    40    2.5   14.7   7.85 1.2072    41.7     0    2      0.0   10 
22/08/19  4:30a    9.4    9.4    9.4    68    3.8   0.0   ---   0.00   0.0   ---    9.4    9.2    9.2  1009.2  0.00   0.0   0.062   0.000   16.1    40    2.4   14.6   7.85 1.2075    41.7     0    2      0.0   10 
22/08/19  4:40a    9.6    9.6    9.4    68    3.9   0.0   ---   0.00   0.0   ---    9.6    9.3    9.3  1009.2  0.00   0.0   0.061   0.000   16.1    41    2.8   14.6   8.03 1.2073    41.7     0    2      0.0   10 
22/08/19  4:50a    9.4    9.6    9.4    68    3.8   0.0   ---   0.00   0.0   ---    9.4    9.2    9.2  1009.4  0.00   0.0   0.062   0.000   16.0    40    2.4   14.5   7.85 1.2079    41.7     0    2      0.0   10 
22/08/19  5:00a    9.4    9.4    9.4    69    4.0   0.0   ---   0.00   0.0   ---    9.4    9.2    9.2  1008.7  0.00   0.0   0.062   0.000   15.9    40    2.3   14.4   7.85 1.2077    41.7     0    2      0.0   10 
22/08/19  5:10a    9.4    9.4    9.4    69    4.0   0.0   ---   0.00   0.0   ---    9.4    9.2    9.2  1008.7  0.00   0.0   0.062   0.000   15.9    41    2.6   14.4   8.04 1.2075    41.7     0    2      0.0   10 
22/08/19  5:20a    9.4    9.4    9.4    70    4.2   0.0   ---   0.00   0.0   ---    9.4    9.2    9.2  1009.3  0.00   0.0   0.062   0.000   15.9    41    2.6   14.4   8.04 1.2082    41.7     0    2      0.0   10 
22/08/19  5:30a    9.2    9.3    9.2    71    4.2   0.0   ---   0.00   0.0   ---    9.2    9.0    9.0  1009.4  0.00   0.0   0.063   0.000   15.8    41    2.5   14.3   8.04 1.2088    41.7     0    2      0.0   10 
22/08/19  5:40a    9.1    9.2    9.1    71    4.1   0.0   ---   0.00   0.0   ---    9.1    8.9    8.9  1009.4  0.00   0.0   0.064   0.000   15.8    41    2.5   14.3   8.04 1.2088    41.7     0    2      0.0   10 
22/08/19  5:50a    9.1    9.1    9.1    71    4.1   0.0   ---   0.00   0.0   ---    9.1    8.8    8.8  1009.6  0.00   0.0   0.064   0.000   15.7    41    2.5   14.3   8.04 1.2093    41.7     0    2      0.0   10 
22/08/19  6:00a    8.9    9.1    8.9    71    4.0   0.0   ---   0.00   0.0   ---    8.9    8.7    8.7  1009.4  0.00   0.0   0.065   0.000   15.7    41    2.5   14.3   8.04 1.2091    41.7     0    2      0.0   10 
22/08/19  6:10a    8.9    8.9    8.9    71    3.9   0.0   ---   0.00   0.0   ---    8.9    8.6    8.6  1009.4  0.00   0.0   0.066   0.000   15.6    41    2.4   14.2   8.05 1.2097    41.7     0    2      0.0   10 
22/08/19  6:20a    8.8    8.9    8.8    71    3.8   0.0   ---   0.00   0.0   ---    8.8    8.5    8.5  1009.1  0.00   0.0   0.066   0.000   15.6    41    2.3   14.1   8.05 1.2095    41.7     0    2      0.0   10 
22/08/19  6:30a    8.8    8.8    8.8    71    3.8   0.0   ---   0.00   0.0   ---    8.8    8.5    8.5  1009.4  0.00   0.0   0.066   0.000   15.6    41    2.3   14.1   8.05 1.2099    41.7     0    2      0.0   10 
22/08/19  6:40a    8.8    8.8    8.8    71    3.8   0.0   ---   0.00   0.0   ---    8.8    8.5    8.5  1009.4  0.00   0.0   0.066   0.000   15.4    41    2.2   14.0   8.05 1.2104    41.7     0    2      0.0   10 
22/08/19  6:50a    8.9    8.9    8.8    70    3.7   0.0   ---   0.00   0.0   ---    8.9    8.6    8.6  1009.4  0.00   0.0   0.066   0.000   15.6    42    2.7   14.2   8.15 1.2097    41.7     0    2      0.0   10 
22/08/19  7:00a    9.1    9.1    8.9    70    3.9   0.0   ---   0.00   0.0   ---    9.1    8.8    8.8  1009.5  0.00   0.0   0.064   0.000   15.4    43    2.9   14.1   8.35 1.2101    41.7     0    2      0.0   10 
22/08/19  7:10a    9.4    9.4    9.1    70    4.2   0.0   ---   0.00   0.0   ---    9.4    9.2    9.2  1009.5  0.00   0.0   0.062   0.000   15.6    43    3.1   14.2   8.35 1.2093    41.7     0    2      0.0   10 
22/08/19  7:20a    9.4    9.4    9.4    69    4.0   0.0   ---   0.00   0.0   ---    9.4    9.2    9.2  1009.6  0.00   0.0   0.062   0.000   15.8    44    3.5   14.4   8.53 1.2084    41.7     0    2      0.0   10 
22/08/19  7:30a    9.4    9.4    9.4    67    3.6   0.0   ---   0.00   0.0   ---    9.4    9.2    9.2  1009.8  0.00   0.0   0.062   0.000   16.0    44    3.7   14.7   8.52 1.2076    41.7     0    2      0.0   10 
22/08/19  7:40a    9.4    9.4    9.4    65    3.2   0.0   ---   0.00   0.0   ---    9.4    9.1    9.1  1009.8  0.00   0.0   0.062   0.000   16.2    44    3.9   14.8   8.51 1.2068    41.7     0    2      0.0   10 
22/08/19  7:50a    9.4    9.4    9.4    65    3.2   0.0   ---   0.00   0.0   ---    9.4    9.1    9.1  1009.9  0.00   0.0   0.062   0.000   16.2    44    3.9   14.9   8.50 1.2066    41.7     0    2      0.0   10 
22/08/19  8:00a    9.4    9.4    9.4    65    3.1   0.0   ---   0.00   0.0   ---    9.4    9.1    9.1  1010.2  0.00   0.0   0.062   0.000   16.4    43    3.8   15.0   8.32 1.2064    41.7     0    2      0.0   10 
22/08/19  8:10a    9.4    9.4    9.4    64    3.0   0.0   ---   0.00   0.0   ---    9.4    9.1    9.1  1010.2  0.00   0.0   0.062   0.000   16.4    43    3.8   15.0   8.32 1.2064    41.7     0    2      0.0   10 
22/08/19  8:20a    9.6    9.6    9.4    64    3.1   0.0   ---   0.00   0.0   ---    9.6    9.2    9.2  1010.4  0.00   0.0   0.061   0.000   16.3    43    3.7   14.9   8.32 1.2070    41.7     0    2      0.0   10 
22/08/19  8:30a    9.6    9.6    9.6    63    2.9   0.0   ---   0.00   0.0   ---    9.6    9.2    9.2  1010.6  0.00   0.0   0.061   0.000   16.3    42    3.4   14.9   8.15 1.2074    41.7     0    2      0.0   10 
22/08/19  8:40a    9.8    9.8    9.6    63    3.1   0.0   ---   0.00   0.0   ---    9.8    9.4    9.4  1010.6  0.00   0.0   0.059   0.000   16.3    42    3.4   14.9   8.15 1.2074    41.7     0    2      0.0   10 
22/08/19  8:50a    9.8    9.8    9.8    62    2.9   0.0   ---   0.00   0.0   ---    9.8    9.4    9.4  1010.9  0.00   0.0   0.059   0.000   16.3    42    3.4   14.9   8.15 1.2078    41.7     0    2      0.0   10 
22/08/19  9:00a   10.1   10.1    9.8    62    3.2   0.0   ---   0.00   0.0   ---   10.1    9.7    9.7  1011.1  0.00   0.0   0.057   0.000   16.2    42    3.3   14.8   8.15 1.2086    41.7     0    2      0.0   10 
22/08/19  9:10a   10.4   10.4   10.1    60    3.0   0.0   ---   0.00   0.0   ---   10.4    9.9    9.9  1011.1  0.00   0.0   0.055   0.000   16.2    42    3.3   14.8   8.15 1.2086    41.7     0    2      0.0   10 
22/08/19  9:20a   10.8   10.8   10.4    60    3.3   0.0   ---   0.00   0.0   ---   10.8   10.3   10.3  1011.0  0.00   0.0   0.052   0.000   16.2    42    3.3   14.8   8.15 1.2084    41.7     0    2      0.0   10 
22/08/19  9:30a   12.0   12.0   10.8    58    4.0   0.0   ---   0.00   0.0   ---   12.0   11.3   11.3  1011.3  0.00   0.0   0.044   0.000   16.3    42    3.4   14.9   8.15 1.2082    41.7     0    2      0.0   10 
22/08/19  9:40a   13.2   13.2   12.0    56    4.6   0.0   ---   0.00   0.0   ---   13.2   12.3   12.3  1011.3  0.00   0.0   0.036   0.000   16.6    42    3.6   15.2   8.15 1.2069    41.7     0    2      0.0   10 
22/08/19  9:50a   13.7   13.7   13.4    52    4.0   0.0   ---   0.00   0.0   ---   13.7   12.7   12.7  1010.9  0.00   0.0   0.032   0.000   16.8    42    3.8   15.4   8.15 1.2054    41.7     0    2      0.0   10 
22/08/19 10:00a   13.9   13.9   13.8    52    4.2   0.0   ---   0.00   0.0   ---   13.9   12.9   12.9  1011.1  0.00   0.0   0.030   0.000   17.1    41    3.7   15.7   7.99 1.2045    41.7     0    2      0.0   10 
22/08/19 10:10a   13.7   13.9   13.7    49    3.1   0.0   ---   0.00   0.0   ---   13.7   12.6   12.6  1011.1  0.00   0.0   0.032   0.000   17.4    41    4.0   16.0   7.98 1.2029    41.7     0    2      0.0   10 
22/08/19 10:20a   13.9   13.9   13.7    50    3.6   0.0   ---   0.00   0.0   ---   13.9   12.8   12.8  1011.1  0.00   0.0   0.031   0.000   17.7    40    3.9   16.2   7.85 1.2019    41.7     0    2      0.0   10 
22/08/19 10:30a   14.1   14.1   14.1    50    3.8   0.0   ---   0.00   0.0   ---   14.1   13.1   13.1  1011.2  0.00   0.0   0.029   0.000   17.9    40    4.1   16.4   7.85 1.2013    41.7     0    2      0.0   10 
22/08/19 10:40a   13.7   13.7   13.6    44    1.6   0.0   ---   0.00   0.0   ---   13.7   12.4   12.4  1011.2  0.00   0.0   0.032   0.000   17.9    39    3.7   16.3   7.73 1.2015    41.7     0    2      0.0   10 
22/08/19 10:50a   13.8   13.9   13.7    42    1.1   0.0   ---   0.00   0.0   ---   13.8   12.4   12.4  1011.4  0.00   0.0   0.032   0.000   18.0    39    3.8   16.4   7.74 1.2012    41.7     0    2      0.0   10 
22/08/19 11:00a   13.9   13.9   13.8    44    1.9   0.0   ---   0.00   0.0   ---   13.9   12.7   12.7  1011.7  0.00   0.0   0.030   0.000   18.1    38    3.6   16.5   7.55 1.2013    41.7     0    2      0.0   10 
22/08/19 11:10a   14.6   14.6   13.9    46    3.1   0.0   ---   0.00   0.0   ---   14.6   13.3   13.3  1011.7  0.00   0.0   0.026   0.000   18.2    38    3.6   16.6   7.55 1.2010    41.7     0    2      0.0   10 
22/08/19 11:20a   14.7   14.7   14.6    44    2.6   0.0   ---   0.00   0.0   ---   14.7   13.4   13.4  1011.7  0.00   0.0   0.025   0.000   18.3    38    3.7   16.7   7.55 1.2004    41.7     0    2      0.0   10 
22/08/19 11:30a   15.1   15.1   14.7    43    2.6   0.0   ---   0.00   0.0   ---   15.1   13.7   13.7  1011.8  0.00   0.0   0.023   0.000   18.3    38    3.7   16.7   7.55 1.2006    41.7     0    2      0.0   10 
22/08/19 11:40a   15.2   15.2   15.1    41    2.0   0.0   ---   0.00   0.0   ---   15.2   13.8   13.8  1011.8  0.00   0.0   0.022   0.000   18.4    38    3.9   16.9   7.55 1.1998    41.7     0    2      0.0   10 
22/08/19 11:50a   15.4   15.4   15.3    41    2.2   0.0   ---   0.00   0.0   ---   15.4   13.9   13.9  1011.6  0.00   0.0   0.020   0.000   18.6    38    4.0   17.1   7.55 1.1988    41.7     0    2      0.0   10 
22/08/19 12:00p   15.6   15.6   15.4    41    2.3   0.0   ---   0.00   0.0   ---   15.6   14.1   14.1  1011.6  0.00   0.0   0.019   0.000   18.9    38    4.3   17.3   7.55 1.1975    41.7     0    2      0.0   10 
22/08/19 12:10p   15.7   15.7   15.7    42    2.8   0.0   ---   0.00   0.0   ---   15.7   14.3   14.3  1011.6  0.00   0.0   0.019   0.000   19.1    37    4.0   17.4   7.35 1.1970    41.7     0    2      0.0   10 
22/08/19 12:20p   15.5   15.6   15.5    40    1.9   0.0   ---   0.00   0.0   ---   15.5   14.0   14.0  1011.4  0.00   0.0   0.020   0.000   19.3    37    4.2   17.7   7.35 1.1957    41.7     0    2      0.0   10 
22/08/19 12:30p   14.8   15.5   14.8    36   -0.1   0.0   ---   0.00   0.0   ---   14.8   13.2   13.2  1011.8  0.00   0.0   0.024   0.000   19.4    36    4.0   17.8   7.19 1.1956    41.7     0    2      0.0   10 
22/08/19 12:40p   14.1   14.7   14.1    36   -0.8   0.0   ---   0.00   0.0   ---   14.1   12.5   12.5  1011.8  0.00   0.0   0.030   0.000   19.3    35    3.5   17.6   7.05 1.1964    41.7     0    2      0.0   10 
22/08/19 12:50p   14.7   14.7   13.9    38    0.5   0.0   ---   0.00   0.0   ---   14.7   13.1   13.1  1012.1  0.00   0.0   0.025   0.000   19.4    35    3.6   17.7   7.05 1.1962    41.7     0    2      0.0   10 
22/08/19  1:00p   14.6   14.7   14.5    33   -1.6   0.0   ---   0.00   0.0   ---   14.6   12.8   12.8  1011.6  0.00   0.0   0.026   0.000   19.4    34    3.2   17.7   6.85 1.1959    41.7     0    2      0.0   10 
22/08/19  1:10p   14.7   14.7   14.4    36   -0.2   0.0   ---   0.00   0.0   ---   14.7   13.1   13.1  1011.6  0.00   0.0   0.025   0.000   19.4    35    3.6   17.7   7.05 1.1957    41.7     0    2      0.0   10 
22/08/19  1:20p   14.8   14.8   14.7    35   -0.5   0.0   ---   0.00   0.0   ---   14.8   13.1   13.1  1011.6  0.00   0.0   0.024   0.000   19.6    35    3.7   17.9   7.05 1.1949    41.7     0    2      0.0   10 
22/08/19  1:30p   14.9   14.9   14.9    35   -0.5   0.0   ---   0.00   0.0   ---   14.9   13.2   13.2  1011.9  0.00   0.0   0.024   0.000   19.8    34    3.5   18.0   6.85 1.1947    41.7     0    2      0.0   10 
22/08/19  1:40p   14.7   14.8   14.7    36   -0.2   0.0   ---   0.00   0.0   ---   14.7   13.1   13.1  1011.9  0.00   0.0   0.025   0.000   19.9    33    3.1   18.1   6.69 1.1944    41.7     0    2      0.0   10 
22/08/19  1:50p   15.0   15.0   14.8    37    0.4   0.0   ---   0.00   0.0   ---   15.0   13.4   13.4  1012.1  0.00   0.0   0.023   0.000   20.0    34    3.6   18.3   6.85 1.1939    41.7     0    2      0.0   10 
22/08/19  2:00p   15.0   15.0   14.9    37    0.4   0.0   ---   0.00   0.0   ---   15.0   13.4   13.4  1012.2  0.00   0.0   0.023   0.000   21.2    34    4.7   19.5   6.85 1.1883    41.7     0    2      0.0   10 
22/08/19  2:10p   15.0   15.0   15.0    37    0.4   0.0   ---   0.00   0.0   ---   15.0   13.4   13.4  1012.2  0.00   0.0   0.023   0.000   21.6    34    5.0   19.9   6.83 1.1868    41.7     0    2      0.0   10 
22/08/19  2:20p   14.7   14.9   14.7    37    0.1   0.0   ---   0.00   0.0   ---   14.7   13.1   13.1  1012.5  0.00   0.0   0.025   0.000   22.1    34    5.5   20.6   6.82 1.1849    41.7     0    2      0.0   10 
22/08/19  2:30p   14.7   14.7   14.7    35   -0.7   0.0   ---   0.00   0.0   ---   14.7   13.0   13.0  1012.7  0.00   0.0   0.025   0.000   22.7    33    5.6   21.6   6.59 1.1823    41.7     0    2      0.0   10 
22/08/19  2:40p   14.1   14.5   14.1    37   -0.4   0.0   ---   0.00   0.0   ---   14.1   12.5   12.5  1012.7  0.00   0.0   0.030   0.000   22.6    32    5.1   21.3   6.50 1.1831    41.7     0    2      0.0   10 
22/08/19  2:50p   14.2   14.2   14.1    37   -0.3   0.0   ---   0.00   0.0   ---   14.2   12.7   12.7  1012.9  0.00   0.0   0.029   0.000   22.7    33    5.6   21.6   6.59 1.1826    41.7     0    2      0.0   10 
22/08/19  3:00p   13.9   14.1   13.9    37   -0.5   0.0   ---   0.00   0.0   ---   13.9   12.4   12.4  1013.2  0.00   0.0   0.030   0.000   23.0    33    5.9   22.0   6.58 1.1816    41.7     0    2      0.0   10 
22/08/19  3:10p   13.9   13.9   13.9    37   -0.5   0.0   ---   0.00   0.0   ---   13.9   12.4   12.4  1013.2  0.00   0.0   0.030   0.000   23.3    33    6.1   22.4   6.57 1.1803    41.7     0    2      0.0   10 
22/08/19  3:20p   13.6   13.7   13.6    37   -0.9   0.0   ---   0.00   0.0   ---   13.6   12.1   12.1  1013.5  0.00   0.0   0.033   0.000   23.2    32    5.6   22.2   6.48 1.1815    41.7     0    2      0.0   10 
22/08/19  3:30p   12.9   13.4   12.9    38   -1.1   0.0   ---   0.00   0.0   ---   12.9   11.5   11.5  1013.9  0.00   0.0   0.038   0.000   23.0    32    5.4   21.9   6.48 1.1827    41.7     0    2      0.0   10 
22/08/19  3:40p   12.7   12.8   12.7    38   -1.3   0.0   ---   0.00   0.0   ---   12.7   11.4   11.4  1013.9  0.00   0.0   0.039   0.000   22.9    31    4.9   21.7   6.29 1.1836    41.7     0    2      0.0   10 
22/08/19  3:50p   12.5   12.7   12.5    39   -1.1   0.0   ---   0.00   0.0   ---   12.5   11.2   11.2  1014.2  0.00   0.0   0.041   0.000   22.6    30    4.1   21.2   6.14 1.1855    41.7     0    2      0.0   10 
22/08/19  4:00p   12.3   12.5   12.3    40   -0.9   0.0   ---   0.00   0.0   ---   12.3   11.1   11.1  1014.4  0.00   0.0   0.042   0.000   22.2    30    3.8   20.6   6.17 1.1878    41.7     0    2      0.0   10 
22/08/19  4:10p   12.2   12.3   12.2    41   -0.7   0.0   ---   0.00   0.0   ---   12.2   11.0   11.0  1014.4  0.00   0.0   0.043   0.000   21.8    30    3.5   20.1   6.20 1.1894    41.7     0    2      0.0   10 
22/08/19  4:20p   12.1   12.1   12.1    41   -0.8   0.0   ---   0.00   0.0   ---   12.1   10.9   10.9  1014.9  0.00   0.0   0.044   0.000   21.7    31    3.8   19.9   6.33 1.1904    41.7     0    2      0.0   10 
22/08/19  4:30p   11.9   11.9   11.9    41   -1.0   0.0   ---   0.00   0.0   ---   11.9   10.7   10.7  1015.2  0.00   0.0   0.045   0.000   21.6    31    3.7   19.7   6.33 1.1913    41.7     0    2      0.0   10 
22/08/19  4:40p   11.7   11.9   11.7    42   -0.8   0.0   ---   0.00   0.0   ---   11.7   10.6   10.6  1015.2  0.00   0.0   0.046   0.000   21.5    31    3.6   19.7   6.34 1.1915    41.7     0    2      0.0   10 
22/08/19  4:50p   11.4   11.4   11.4    42   -1.0   0.0   ---   0.00   0.0   ---   11.4   10.4   10.4  1015.5  0.00   0.0   0.048   0.000   21.4    32    4.0   19.6   6.54 1.1921    41.7     0    2      0.0   10 
22/08/19  5:00p   11.1   11.3   11.1    43   -1.0   0.0   ---   0.00   0.0   ---   11.1   10.1   10.1  1016.0  0.00   0.0   0.050   0.000   21.2    32    3.9   19.4   6.55 1.1935    41.7     0    2      0.0   10 
22/08/19  5:10p   10.8   10.9   10.8    43   -1.3   0.0   ---   0.00   0.0   ---   10.8    9.8    9.8  1016.0  0.00   0.0   0.052   0.000   21.0    32    3.7   19.1   6.55 1.1945    41.7     0    2      0.0   10 
22/08/19  5:20p   10.7   10.7   10.7    43   -1.4   0.0   ---   0.00   0.0   ---   10.7    9.8    9.8  1016.6  0.00   0.0   0.053   0.000   21.0    32    3.7   19.1   6.55 1.1951    41.7     0    2      0.0   10 
22/08/19  5:30p   10.4   10.7   10.4    42   -1.9   0.0   ---   0.00   0.0   ---   10.4    9.6    9.6  1017.1  0.00   0.0   0.055   0.000   20.8    32    3.5   18.9   6.55 1.1965    41.7     0    2      0.0   10 
22/08/19  5:40p   10.0   10.3   10.0    44   -1.7   0.0   ---   0.00   0.0   ---   10.0    9.3    9.3  1017.1  0.00   0.0   0.058   0.000   20.6    32    3.3   18.7   6.55 1.1976    41.7     0    2      0.0   10 
22/08/19  5:50p    9.7    9.9    9.7    46   -1.4   0.0   ---   0.00   0.0   ---    9.7    9.0    9.0  1017.4  0.00   0.0   0.060   0.000   21.3    31    3.5   19.4   6.34 1.1951    41.7     0    2      0.0   10 
22/08/19  6:00p    9.4    9.4    9.4    46   -1.7   0.0   ---   0.00   0.0   ---    9.4    8.7    8.7  1017.9  0.00   0.0   0.062   0.000   21.4    31    3.6   19.5   6.34 1.1952    41.7     0    2      0.0   10 
22/08/19  6:10p    9.1    9.1    9.1    46   -2.0   0.0   ---   0.00   0.0   ---    9.1    8.3    8.3  1017.9  0.00   0.0   0.064   0.000   21.6    30    3.2   19.7   6.22 1.1947    41.7     0    2      0.0   10 
22/08/19  6:20p    8.6    8.9    8.6    49   -1.6   0.0   ---   0.00   0.0   ---    8.6    7.9    7.9  1018.4  0.00   0.0   0.068   0.000   21.8    30    3.4   20.0   6.20 1.1943    41.7     0    2      0.0   10 
22/08/19  6:30p    8.2    8.3    8.2    51   -1.3   0.0   ---   0.00   0.0   ---    8.2    7.6    7.6  1018.8  0.00   0.0   0.070   0.000   22.2    29    3.3   20.5   5.97 1.1933    41.7     0    2      0.0   10 
22/08/19  6:40p    7.8    7.9    7.8    51   -1.7   0.0   ---   0.00   0.0   ---    7.8    7.2    7.2  1018.8  0.00   0.0   0.073   0.000   22.2    29    3.3   20.5   5.97 1.1933    41.7     0    2      0.0   10 
22/08/19  6:50p    7.6    7.7    7.6    52   -1.7   0.0   ---   0.00   0.0   ---    7.6    6.9    6.9  1019.1  0.00   0.0   0.075   0.000   22.2    29    3.3   20.6   5.97 1.1934    41.7     0    2      0.0   10 
22/08/19  7:00p    7.5    7.6    7.5    52   -1.7   0.0   ---   0.00   0.0   ---    7.5    6.9    6.9  1019.4  0.00   0.0   0.075   0.000   22.5    28    3.1   20.9   5.80 1.1928    41.7     0    2      0.0   10 
22/08/19  7:10p    7.2    7.5    7.2    53   -1.7   0.0   ---   0.00   0.0   ---    7.2    6.7    6.7  1019.4  0.00   0.0   0.077   0.000   22.2    28    2.8   20.5   5.83 1.1941    41.7     0    2      0.0   10 
22/08/19  7:20p    7.1    7.2    7.1    54   -1.6   0.0   ---   0.00   0.0   ---    7.1    6.5    6.5  1019.5  0.00   0.0   0.078   0.000   21.8    28    2.5   19.9   5.87 1.1960    41.7     0    2      0.0   10 
22/08/19  7:30p    7.1    7.1    7.0    52   -2.1   0.0   ---   0.00   0.0   ---    7.1    6.4    6.4  1019.8  0.00   0.0   0.078   0.000   21.5    28    2.2   19.5   5.91 1.1979    41.7     0    2      0.0   10 
22/08/19  7:40p    7.1    7.2    7.1    52   -2.1   0.0   ---   0.00   0.0   ---    7.1    6.4    6.4  1019.8  0.00   0.0   0.078   0.000   21.0    28    1.8   18.9   5.95 1.2002    41.7     0    2      0.0   10 
22/08/19  7:50p    6.9    7.1    6.9    52   -2.3   0.0   ---   0.00   0.0   ---    6.9    6.3    6.3  1020.5  0.00   0.0   0.079   0.000   20.7    29    2.0   18.7   6.06 1.2019    41.7     0    2      0.0   10 
22/08/19  8:00p    6.7    6.8    6.7    52   -2.5   0.0   ---   0.00   0.0   ---    6.7    6.1    6.1  1020.7  0.00   0.0   0.081   0.000   20.3    29    1.7   18.3   6.08 1.2040    41.7     0    2      0.0   10 
22/08/19  8:10p    6.4    6.7    6.4    53   -2.5   0.0   ---   0.00   0.0   ---    6.4    5.9    5.9  1020.7  0.00   0.0   0.083   0.000   20.2    30    2.0   18.2   6.25 1.2044    41.7     0    2      0.0   10 
22/08/19  8:20p    5.9    6.4    5.9    55   -2.5   0.0   ---   0.00   0.0   ---    5.9    5.3    5.3  1021.0  0.00   0.0   0.086   0.000   19.9    30    1.8   17.9   6.25 1.2061    41.7     0    2      0.0   10 
22/08/19  8:30p    5.7    5.9    5.7    55   -2.7   0.0   ---   0.00   0.0   ---    5.7    5.1    5.1  1021.2  0.00   0.0   0.088   0.000   19.6    30    1.5   17.6   6.25 1.2076    41.7     0    2      0.0   10 
22/08/19  8:40p    5.7    5.7    5.7    58   -1.9   0.0   ---   0.00   0.0   ---    5.7    5.2    5.2  1021.2  0.00   0.0   0.088   0.000   19.3    31    1.8   17.4   6.41 1.2086    41.7     0    2      0.0   10 
22/08/19  8:50p    5.7    5.7    5.7    58   -1.9   0.0   ---   0.00   0.0   ---    5.7    5.2    5.2  1021.2  0.00   0.0   0.088   0.000   19.2    31    1.6   17.2   6.42 1.2094    41.7     0    2      0.0   10 
22/08/19  9:00p    5.8    5.8    5.7    58   -1.9   0.0   ---   0.00   0.0   ---    5.8    5.3    5.3  1021.5  0.00   0.0   0.087   0.000   19.0    31    1.5   17.1   6.43 1.2105    41.7     0    2      0.0   10 
22/08/19  9:10p    5.4    5.8    5.4    58   -2.2   0.0   ---   0.00   0.0   ---    5.4    4.9    4.9  1021.5  0.00   0.0   0.090   0.000   18.8    31    1.3   16.9   6.43 1.2113    41.7     0    2      0.0   10 
22/08/19  9:20p    5.3    5.4    5.3    57   -2.5   0.0   ---   0.00   0.0   ---    5.3    4.8    4.8  1021.3  0.00   0.0   0.090   0.000   18.6    32    1.6   16.7   6.55 1.2119    41.7     0    2      0.0   10 
22/08/19  9:30p    5.4    5.4    5.3    55   -2.9   0.0   ---   0.00   0.0   ---    5.4    4.8    4.8  1021.5  0.00   0.0   0.090   0.000   18.4    32    1.4   16.5   6.55 1.2130    41.7     0    2      0.0   10 
22/08/19  9:40p    5.3    5.4    5.3    55   -3.0   0.0   ---   0.00   0.0   ---    5.3    4.8    4.8  1021.5  0.00   0.0   0.090   0.000   18.3    32    1.3   16.3   6.55 1.2137    41.7     0    2      0.0   10 
22/08/19  9:50p    5.1    5.3    5.1    56   -3.0   0.0   ---   0.00   0.0   ---    5.1    4.6    4.6  1021.3  0.00   0.0   0.092   0.000   18.2    32    1.2   16.2   6.56 1.2140    41.7     0    2      0.0   10 
22/08/19 10:00p    5.0    5.1    5.0    56   -3.1   0.0   ---   0.00   0.0   ---    5.0    4.4    4.4  1021.6  0.00   0.0   0.093   0.000   18.1    32    1.1   16.2   6.56 1.2146    41.7     0    2      0.0   10 
22/08/19 10:10p    4.9    5.0    4.9    56   -3.1   0.0   ---   0.00   0.0   ---    4.9    4.4    4.4  1021.6  0.00   0.0   0.093   0.000   17.9    32    0.9   15.9   6.57 1.2156    41.7     0    2      0.0   10 
22/08/19 10:20p    4.6    4.9    4.6    60   -2.5   0.0   ---   0.00   0.0   ---    4.6    4.1    4.1  1021.4  0.00   0.0   0.096   0.000   17.7    32    0.8   15.8   6.57 1.2162    41.7     0    2      0.0   10 
22/08/19 10:30p    4.4    4.6    4.4    59   -2.9   0.0   ---   0.00   0.0   ---    4.4    4.0    4.0  1021.6  0.00   0.0   0.096   0.000   17.4    33    1.0   15.6   6.78 1.2174    41.7     0    2      0.0   10 
22/08/19 10:40p    4.6    4.6    4.4    58   -3.0   0.0   ---   0.00   0.0   ---    4.6    4.1    4.1  1021.6  0.00   0.0   0.095   0.000   17.3    33    0.8   15.4   6.79 1.2182    41.7     0    2      0.0   10 
22/08/19 10:50p    4.4    4.6    4.4    59   -2.9   0.0   ---   0.00   0.0   ---    4.4    3.9    3.9  1021.4  0.00   0.0   0.097   0.000   17.0    33    0.6   15.1   6.80 1.2193    41.7     0    2      0.0   10 
22/08/19 11:00p    4.1    4.3    4.1    59   -3.2   0.0   ---   0.00   0.0   ---    4.1    3.6    3.6  1021.4  0.00   0.0   0.099   0.000   16.9    33    0.5   15.1   6.80 1.2195    41.7     0    2      0.0   10 
22/08/19 11:10p    3.8    4.1    3.8    62   -2.8   0.0   ---   0.00   0.0   ---    3.8    3.4    3.4  1021.4  0.00   0.0   0.101   0.000   16.8    33    0.4   14.9   6.81 1.2203    41.7     0    2      0.0   10 
22/08/19 11:20p    3.6    3.8    3.6    62   -3.1   0.0   ---   0.00   0.0   ---    3.6    3.1    3.1  1021.1  0.00   0.0   0.103   0.000   16.6    33    0.3   14.7   6.81 1.2208    41.7     0    2      0.0   10 
22/08/19 11:30p    3.3    3.5    3.3    64   -2.9   0.0   ---   0.00   0.0   ---    3.3    2.9    2.9  1021.3  0.00   0.0   0.105   0.000   16.4    33    0.1   14.5   6.82 1.2221    41.7     0    2      0.0   10 
22/08/19 11:40p    3.1    3.3    3.1    65   -2.8   0.0   ---   0.00   0.0   ---    3.1    2.7    2.7  1021.3  0.00   0.0   0.106   0.000   16.2    34    0.3   14.4   6.93 1.2226    41.7     0    2      0.0   10 
22/08/19 11:50p    3.0    3.1    3.0    66   -2.7   0.0   ---   0.00   0.0   ---    3.0    2.6    2.6  1021.5  0.00   0.0   0.106   0.000   16.2    34    0.3   14.3   6.93 1.2231    41.7     0    2      0.0   10 
23/08/19 12:00a    2.6    3.0    2.6    66   -3.1   0.0   ---   0.00   0.0   ---    2.6    2.2    2.2  1021.7  0.00   0.0   0.109   0.000   16.0    34    0.1   14.2   6.93 1.2242    41.7     0    2      0.0   10 
23/08/19 12:10a    1.9    2.6    1.9    67   -3.6   0.0   ---   0.00   0.0   ---    1.9    1.6    1.6  1021.7  0.00   0.0   0.114   0.000   15.8    34   -0.1   14.0   6.94 1.2252    41.7     0    2      0.0   10 
23/08/19 12:20a    1.6    1.9    1.6    69   -3.5   0.0   ---   0.00   0.0   ---    1.6    1.3    1.3  1022.2  0.00   0.0   0.117   0.000   15.7    34   -0.1   13.9   6.94 1.2260    41.7     0    2      0.0   10 
23/08/19 12:30a    1.3    1.5    1.3    70   -3.5   0.0   ---   0.00   0.0   ---    1.3    1.1    1.1  1022.3  0.00   0.0   0.118   0.000   15.6    34   -0.3   13.8   6.95 1.2269    41.7     0    2      0.0   10 
23/08/19 12:40a    1.3    1.3    1.3    71   -3.4   0.0   ---   0.00   0.0   ---    1.3    1.1    1.1  1022.3  0.00   0.0   0.118   0.000   15.4    34   -0.4   13.6   6.94 1.2277    41.7     0    2      0.0   10 
23/08/19 12:50a    1.5    1.5    1.3    71   -3.2   0.0   ---   0.00   0.0   ---    1.5    1.2    1.2  1022.4  0.00   0.0   0.117   0.000   15.3    34   -0.5   13.5   6.94 1.2283    41.7     0    2      0.0   10 
23/08/19  1:00a    1.6    1.6    1.4    70   -3.3   0.0   ---   0.00   0.0   ---    1.6    1.3    1.3  1022.3  0.00   0.0   0.117   0.000   15.2    34   -0.6   13.4   6.94 1.2285    41.7     0    2      0.0   10 
23/08/19  1:10a    1.6    1.6    1.5    70   -3.3   0.0   ---   0.00   0.0   ---    1.6    1.3    1.3  1022.3  0.00   0.0   0.117   0.000   15.1    34   -0.7   13.3   6.93 1.2290    41.7     0    2      0.0   10 
23/08/19  1:20a    1.8    1.8    1.7    69   -3.3   0.0   ---   0.00   0.0   ---    1.8    1.6    1.6  1021.8  0.00   0.0   0.115   0.000   14.9    34   -0.8   13.2   6.93 1.2293    41.7     0    2      0.0   10 
23/08/19  1:30a    2.1    2.1    1.8    69   -3.0   0.0   ---   0.00   0.0   ---    2.1    1.7    1.7  1021.7  0.00   0.0   0.113   0.000   14.9    35   -0.5   13.2   7.05 1.2292    41.7     0    2      0.0   10 
23/08/19  1:40a    1.9    2.1    1.9    70   -3.0   0.0   ---   0.00   0.0   ---    1.9    1.6    1.6  1021.7  0.00   0.0   0.114   0.000   14.7    35   -0.6   13.1   7.05 1.2300    41.7     0    2      0.0   10 
23/08/19  1:50a    1.7    1.9    1.7    71   -3.0   0.0   ---   0.00   0.0   ---    1.7    1.4    1.4  1021.7  0.00   0.0   0.115   0.000   14.6    35   -0.7   12.9   7.05 1.2305    41.7     0    2      0.0   10 
23/08/19  2:00a    1.7    1.7    1.7    71   -3.0   0.0   ---   0.00   0.0   ---    1.7    1.4    1.4  1021.9  0.00   0.0   0.116   0.000   14.6    35   -0.7   12.9   7.05 1.2310    41.7     0    2      0.0   10 
23/08/19  2:10a    1.3    1.7    1.3    71   -3.4   0.0   ---   0.00   0.0   ---    1.3    1.1    1.1  1021.9  0.00   0.0   0.118   0.000   14.4    35   -0.8   12.8   7.05 1.2316    41.7     0    2      0.0   10 
23/08/19  2:20a    0.9    1.2    0.9    72   -3.6   0.0   ---   0.00   0.0   ---    0.9    0.6    0.6  1022.3  0.00   0.0   0.121   0.000   14.3    35   -0.9   12.7   7.05 1.2325    41.7     0    2      0.0   10 
23/08/19  2:30a    0.6    0.9    0.6    74   -3.5   0.0   ---   0.00   0.0   ---    0.6    0.3    0.3  1022.4  0.00   0.0   0.123   0.000   14.2    35   -1.1   12.5   7.05 1.2334    41.7     0    2      0.0   10 
23/08/19  2:40a    0.3    0.6    0.3    77   -3.2   0.0   ---   0.00   0.0   ---    0.3    0.1    0.1  1022.4  0.00   0.0   0.125   0.000   14.1    35   -1.1   12.5   7.05 1.2337    41.7     0    2      0.0   10 
23/08/19  2:50a    0.1    0.3    0.1    78   -3.3   0.0   ---   0.00   0.0   ---    0.1   -0.1   -0.1  1022.3  0.00   0.0   0.127   0.000   14.0    35   -1.2   12.4   7.05 1.2341    41.7     0    2      0.0   10 
23/08/19  3:00a   -0.1    0.1   -0.1    80   -3.1   0.0   ---   0.00   0.0   ---   -0.1   -0.2   -0.2  1022.3  0.00   0.0   0.128   0.000   13.8    35   -1.4   12.2   7.05 1.2349    41.7     0    2      0.0   10 
23/08/19  3:10a   -0.2   -0.1   -0.2    80   -3.2   0.0   ---   0.00   0.0   ---   -0.2   -0.3   -0.3  1022.3  0.00   0.0   0.128   0.000   13.8    35   -1.4   12.2   7.05 1.2351    41.7     0    2      0.0   10 
23/08/19  3:20a   -0.2   -0.2   -0.2    80   -3.3   0.0   ---   0.00   0.0   ---   -0.2   -0.4   -0.4  1022.6  0.00   0.0   0.129   0.000   13.6    35   -1.6   12.1   7.05 1.2363    41.7     0    2      0.0   10 
23/08/19  3:30a   -0.1   -0.1   -0.2    82   -2.8   0.0   ---   0.00   0.0   ---   -0.1   -0.2   -0.2  1022.7  0.00   0.0   0.128   0.000   13.6    35   -1.6   12.1   7.05 1.2365    41.7     0    2      0.0   10